Tiempo atmosférico en la estación meteorológica de Gran Canaria Aeropuerto, Las Palmas (24 m.)

Fecha
DESCASC
Temp. máxima en grados centígrados (hora)
DESCASC
Temp. mínima en grados centígrados (hora)
DESCASC
Temp. media en grados centígrados
DESCASC
Racha de viento máxima en m/sg (hora)
DESCASC
Velocidad máxima media en intervalos de 10 minutos(hora)
DESCASC
Precipitaciones diarias en mm
DESCASC
Precipitaciones de 00:00 a 06:00 en mm
DESCASC
Precipitaciones de 06:00 a 12:00 en mm
DESCASC
Precipitaciones de 12:00 a 18:00 en mm
DESCASC
Precipitaciones de 18:00 a 24:00 en mm
DESCASC
17-08-2017 29.6 (14:50) 22.4 (03:30) 26 14.44 (18:30) 12.22 (15:40) 0 0 0 0 0
16-08-2017 27.3 (14:40) 22.4 (02:20) 24.8 16.39 (16:20) 13.33 (14:50) 0 0 0 0 0
15-08-2017 26.7 (14:10) 20.2 (00:00) 23.5 12.5 (21:20) 9.72 (18:00) 0 0 0 0 0
14-08-2017 27.8 (13:10) 20.1 (07:40) 23.9 12.78 (16:50) 10.56 (17:10) 0 0 0 0 0
13-08-2017 29.8 (14:50) 21 (00:00) 25.4 15.28 (16:10) 11.94 (15:00) 0 0 0 0 0
12-08-2017 29.8 (17:10) 21.1 (00:00) 25.4 16.39 (14:40) 13.33 (13:40) 0 0 0 0 0
11-08-2017 29.2 (16:20) 21.5 (00:00) 25.4 16.11 (00:40) 10.83 (07:30) 0 0 0 0 0
10-08-2017 28 (12:50) 22.4 (00:00) 25.2 17.5 (00:40) 13.89 (14:20) 0 0 0 0 0
09-08-2017 29.2 (13:00) 22.9 (00:00) 26.1 16.94 (16:00) 13.33 (16:10) 0 0 0 0 0
08-08-2017 28.8 (14:40) 22.9 (00:00) 25.8 13.33 (11:50) 10.83 (15:50) 0 0 0 0 0
07-08-2017 31.5 (15:10) 23.1 (00:00) 27.3 16.39 (00:10) 10.56 (00:10) 0 0 0 0 0
06-08-2017 29.1 (15:20) 21.9 (00:00) 25.5 15 (12:00) 12.22 (12:30) 0 0 0 0 0
05-08-2017 28 (15:10) 22.5 (00:00) 25.3 16.39 (12:50) 13.89 (14:10) 0 0 0 0 0
04-08-2017 28.6 (15:20) 21.4 (00:00) 25 15 (13:00) 12.5 (15:40) 0 0 0 0 0
03-08-2017 26.8 (14:40) 21.3 (00:00) 24 17.5 (13:50) 13.89 (14:00) 0 0 0 0 0
02-08-2017 27.2 (14:50) 21.2 (00:00) 24.2 15.28 (12:20) 12.5 (14:40) 0 0 0 0 0
01-08-2017 28 (14:40) 21.5 (00:00) 24.8 17.5 (14:20) 14.72 (15:00) 0 0 0 0 0
31-07-2017 27.1 (16:50) 21.1 (00:00) 24.1 18.89 (12:50) 14.44 (14:20) 0 0 0 0 0
30-07-2017 26.6 (14:30) 20.8 (00:00) 23.7 17.5 (13:50) 13.33 (15:50) 0 0 0 0 0
29-07-2017 29.6 (15:50) 22.9 (00:00) 26.3 13.89 (19:00) 10.83 (15:10) 0 0 0 0 0
28-07-2017 33.6 (16:50) 23.9 (00:00) 28.7 12.5 (04:10) 9.17 (17:20) 0 0 0 0 0
27-07-2017 29.9 (15:00) 20.9 (00:00) 25.4 13.89 (16:50) 11.39 (16:50) 0 0 0 0 0
26-07-2017 27.4 (15:10) 21.3 (00:00) 24.3 16.94 (14:40) 12.78 (14:40) 0 0 0 0 0
25-07-2017 27.1 (16:40) 21.7 (00:00) 24.4 17.5 (13:40) 12.78 (13:40) 0 0 0 0 0
24-07-2017 27.4 (15:10) 21.2 (00:00) 24.3 18.89 (16:10) 12.5 (16:00) 0 0 0 0 0
23-07-2017 26.4 (15:00) 20.9 (00:00) 23.6 18.61 (13:30) 15.83 (13:30) 0 0 0 0 0
22-07-2017 25.8 (15:00) 21.1 (00:00) 23.4 18.06 (12:30) 13.33 (12:30) 0 0 0 0 0
21-07-2017 26.1 (14:30) 20.9 (00:00) 23.5 18.89 (13:20) 13.89 (13:50) 0 0 0 0 0
20-07-2017 26.9 (15:40) 21.4 (00:00) 24.1 16.39 (18:10) 12.78 (16:50) 0 0 0 0 0
19-07-2017 26.7 (14:30) 21 (00:00) 23.9 18.61 (14:30) 13.89 (17:00) 0 0 0 0 0

Gráficas

Temp. máximas Temp. mínimas Temp. medias Precipitaciones Rachas de viento máximas Velocidades máximas media en intervalos de 10 minutos

Datos horarios

Fecha y hora oficial Temperatura (ºC) Velocidad del viento (km/h) Dirección del viento Racha (km/h) Dirección de racha Precipitación (mm) Presión (hPa) Tendencia (hPa) Humedad (%)
2017-08-17 23:00:00 27.1 26 Norte 37 Norte 0 1011.8 1.5 31
2017-08-17 22:00:00 25.9 23 Norte 35 Norte 0 1011.2 1.1 46
2017-08-17 21:00:00 28.1 24 Norte 41 Norte 0 1010.5 0.3 26
2017-08-17 20:00:00 27.6 28 Norte 48 Norte 0 1010.3 -0.3 50
2017-08-17 19:00:00 27.3 32 Norte 52 Norte 0 1010.1 -0.9 59
2017-08-17 18:00:00 27.7 33 Norte 46 Norte 0 1010.2 -0.9 58
2017-08-17 17:00:00 28.1 31 Norte 46 Norte 0 1010.6 -0.9 58
2017-08-17 16:00:00 28.1 36 Norte 50 Nordeste 0 1011 -0.8 59
2017-08-17 15:00:00 29.3 29 Norte 48 Norte 0 1011.1 -0.9 53
2017-08-17 14:00:00 28.3 39 Norte 50 Nordeste 0 1011.5 -0.4 56
2017-08-17 13:00:00 28.6 36 Norte 50 Norte 0 1011.8 0 56
2017-08-17 12:00:00 27.7 40 Norte 48 Norte 0 1012 0.2 56
2017-08-17 11:00:00 27.6 33 Norte 41 Norte 0 1011.9 0.9 56
2017-08-17 10:00:00 26.8 26 Norte 39 Norte 0 1011.8 1.3 53
2017-08-17 09:00:00 24.9 22 Norte 37 Norte 0 1011.8 1.6 60
2017-08-17 08:00:00 23.3 23 Norte 39 Norte 0 1011 0.7 69
2017-08-17 07:00:00 23.4 23 Norte 39 Norte 0 1010.5 0 67
2017-08-17 06:00:00 26.7 19 Norte 35 Norte 0 1010.2 -1 38
2017-08-17 05:00:00 24.8 19 Norte 33 Norte 0 1010.3 -1.1 50
2017-08-17 04:00:00 22.8 24 Norte 41 Norte 0 1010.5 -1.4 75
2017-08-17 03:00:00 22.5 25 Norte 39 Norte 0 1011.2 -0.9 82
2017-08-17 02:00:00 22.7 21 Norte 46 Norte 0 1011.4 -1.1 80
2017-08-17 01:00:00 22.9 27 Norte 45 Norte 0 1011.9 -0.4 79
2017-08-17 00:00:00 22.9 28 Norte 42 Norte 0 1012.1 0.3 82
2017-08-16 23:00:00 23.1 26 Norte 46 Norte 0 1012.5 1.3 79
2017-08-16 22:00:00 23.1 27 Norte 46 Norte 0 1012.3 0.9 77
2017-08-16 21:00:00 23.6 29 Norte 46 Norte 0 1011.8 0.2 75
2017-08-16 20:00:00 24.3 33 Norte 48 Norte 0 1011.2 -0.5 73
2017-08-16 19:00:00 25.3 38 Norte 52 Norte 0 1011.4 -0.4 70
2017-08-16 18:00:00 25.9 38 Norte 55 Norte 0 1011.6 -0.7 66
2017-08-16 17:00:00 26.6 42 Norte 59 Norte 0 1011.7 -0.8 63
2017-08-16 16:00:00 27 46 Norte 58 Nordeste 0 1011.8 -1.1 62
2017-08-16 15:00:00 26.3 44 Norte 58 Nordeste 0 1012.3 -0.8 64
2017-08-16 14:00:00 26.7 39 Norte 54 Norte 0 1012.5 -0.8 62
2017-08-16 13:00:00 26.4 40 Norte 52 Norte 0 1012.9 -0.2 63
2017-08-16 12:00:00 26.1 36 Norte 48 Norte 0 1013.1 0.4 64
2017-08-16 11:00:00 25.5 33 Norte 45 Norte 0 1013.3 0.7 67
2017-08-16 10:00:00 24.4 27 Norte 42 Norte 0 1013.1 0.6 68
2017-08-16 09:00:00 23.3 27 Norte 41 Norte 0 1012.7 0.4 75
2017-08-16 08:00:00 22.6 23 Norte 35 Norte 0 1012.6 0.5 80
2017-08-16 07:00:00 22.8 21 Norte 33 Norte 0 1012.5 0.5 75
2017-08-16 06:00:00 22.7 21 Norte 33 Norte 0 1012.3 -0.3 78
2017-08-16 05:00:00 22.5 19 Norte 41 Norte 0 1012.1 -1.1 76
2017-08-16 04:00:00 22.5 24 Norte 39 Norte 0 1012 -1.5 78
2017-08-16 03:00:00 22.6 24 Norte 39 Norte 0 1012.6 -1.1 78
2017-08-16 02:00:00 22.5 24 Norte 41 Norte 0 1013.2 -0.6 80
2017-08-16 01:00:00 22.6 26 Norte 45 Norte 0 1013.5 0.3 80
2017-08-16 00:00:00 22.9 26 Norte 39 Norte 0 1013.7 1 78
2017-08-15 23:00:00 22.8 24 Norte 45 Norte 0 1013.8 1.6 77
2017-08-15 22:00:00 22.9 27 Norte 45 Norte 0 1013.2 1.1 75
2017-08-15 21:00:00 23.1 26 Norte 42 Norte 0 1012.7 0.6 76
2017-08-15 20:00:00 23.7 33 Norte 42 Norte 0 1012.2 -0.2 72
2017-08-15 19:00:00 24.4 35 Norte 42 Norte 0 1012.1 -0.3 70
2017-08-15 18:00:00 25.3 35 Norte 42 Norte 0 1012.1 -0.6 67
2017-08-15 17:00:00 25.4 32 Norte 42 Norte 0 1012.4 -0.4 66
2017-08-15 16:00:00 25.7 32 Norte 41 Norte 0 1012.4 -0.7 65
2017-08-15 15:00:00 26 33 Nordeste 42 Nordeste 0 1012.7 -0.7 63
2017-08-15 14:00:00 26.1 32 Nordeste 41 Norte 0 1012.8 -0.2 62
2017-08-15 13:00:00 25.9 31 Nordeste 41 Norte 0 1013.1 0.3 63
2017-08-15 12:00:00 25.1 32 Norte 41 Nordeste 0 1013.4 0.8 64
2017-08-15 11:00:00 24.8 32 Norte 39 Norte 0 1013 0.7 64
2017-08-15 10:00:00 24 23 Norte 32 Norte 0 1012.8 1 65
2017-08-15 09:00:00 22.4 15 Norte 26 Norte 0 1012.6 1.4 72
2017-08-15 08:00:00 20.6 11 Norte 17 Norte 0 1012.3 1.6 79
2017-08-15 07:00:00 20.5 8 Norte 22 Norte 0 1011.8 1.1 79
2017-08-15 06:00:00 21 14 Norte 22 Norte 0 1011.2 0.2 78
2017-08-15 05:00:00 21.3 15 Norte 28 Norte 0 1010.7 -0.6 80
2017-08-15 04:00:00 21.5 15 Norte 24 Norte 0 1010.7 -0.9 79
2017-08-15 03:00:00 21.6 15 Norte 32 Norte 0 1011 -0.7 79
2017-08-15 02:00:00 21.9 19 Norte 32 Norte 0 1011.3 -0.1 79
2017-08-15 01:00:00 22.1 16 Norte 26 Norte 0 1011.6 0.4 78
2017-08-15 00:00:00 22.3 16 Norte 24 Norte 0 1011.7 1.1 78
2017-08-14 23:00:00 22.5 18 Norte 30 Norte 0 1011.4 1.4 76
2017-08-14 22:00:00 22.8 17 Norte 33 Norte 0 1011.2 1.7 76
2017-08-14 21:00:00 23.2 22 Norte 35 Norte 0 1010.6 1 74
2017-08-14 20:00:00 23.9 26 Norte 42 Nordeste 0 1010 0 72
2017-08-14 19:00:00 25 38 Norte 45 Nordeste 0 1009.5 -0.6 68
2017-08-14 18:00:00 26 37 Norte 46 Norte 0 1009.6 -0.9 64
2017-08-14 17:00:00 26.1 37 Norte 46 Nordeste 0 1010 -0.6 64
2017-08-14 16:00:00 27.1 35 Norte 41 Nordeste 0 1010.1 -0.7 61
2017-08-14 15:00:00 27.2 31 Norte 39 Nordeste 0 1010.5 -0.3 60
2017-08-14 14:00:00 27.6 32 Nordeste 37 Nordeste 0 1010.6 0 56
2017-08-14 13:00:00 27.5 26 Nordeste 33 Norte 0 1010.8 0.5 57
2017-08-14 12:00:00 26.8 26 Nordeste 32 Nordeste 0 1010.8 0.6 59
2017-08-14 11:00:00 25.1 22 Nordeste 30 Nordeste 0 1010.6 0.5 65
2017-08-14 10:00:00 24.2 17 Norte 24 Nordeste 0 1010.3 0.9 65
2017-08-14 09:00:00 22.2 13 Norte 24 Norte 0 1010.2 0.7 72
2017-08-14 08:00:00 20.4 9 Noroeste 18 Norte 0 1010.1 1 79
2017-08-14 07:00:00 20.4 9 Norte 18 Norte 0 1009.4 0.4 80
2017-08-14 06:00:00 20.9 10 Norte 24 Norte 0 1009.5 0.2 79
2017-08-14 05:00:00 20.8 13 Norte 30 Norte 0 1009.1 -0.7 79
2017-08-14 04:00:00 21.1 20 Norte 33 Norte 0 1009 -1.4 80
2017-08-14 03:00:00 21.3 21 Norte 33 Norte 0 1009.3 -1.2 80
2017-08-14 02:00:00 21.1 13 Norte 21 Norte 0 1009.8 -1 81
2017-08-14 01:00:00 21.6 8 Norte 13 Norte 0 1010.4 -0.2 77
2017-08-14 00:00:00 22.1 6 Norte 15 Norte 0 1010.5 0.3 78
2017-08-13 23:00:00 22.6 10 Norte 15 Norte 0 1010.8 1.1 75
2017-08-13 22:00:00 23.2 9 Nordeste 15 Sudoeste 0 1010.6 1.1 74
2017-08-13 21:00:00 24 13 Sudoeste 22 Norte 0 1010.2 0.6 68
2017-08-13 20:00:00 25.3 14 Norte 33 Norte 0 1009.7 0.2 65
2017-08-13 19:00:00 26.1 23 Norte 42 Norte 0 1009.5 -0.6 60
2017-08-13 18:00:00 26.6 31 Norte 52 Norte 0 1009.6 -0.9 54
2017-08-13 17:00:00 27.4 39 Norte 55 Norte 0 1009.5 -1 52
2017-08-13 16:00:00 28.8 41 Norte 52 Norte 0 1010.1 -0.9 38
2017-08-13 15:00:00 29.4 43 Norte 52 Nordeste 0 1010.5 -0.8 35
2017-08-13 14:00:00 28.7 36 Norte 48 Nordeste 0 1010.5 -0.7 33
2017-08-13 13:00:00 29 37 Norte 48 Norte 0 1011 0.1 35
2017-08-13 12:00:00 28.3 33 Norte 42 Norte 0 1011.3 0.5 33
2017-08-13 11:00:00 27.5 27 Norte 41 Norte 0 1011.2 0.5 36
2017-08-13 10:00:00 26.4 21 Norte 33 Norte 0 1010.9 0.4 29
2017-08-13 09:00:00 25.1 16 Norte 26 Norte 0 1010.8 0.3 29
2017-08-13 08:00:00 22.2 9 Norte 18 Norte 0 1010.7 0.1 31
2017-08-13 07:00:00 22 13 Norte 22 Norte 0 1010.5 -0.2 37
2017-08-13 06:00:00 21.1 14 Norte 24 Norte 0 1010.5 -0.5 67
2017-08-13 05:00:00 21.6 15 Norte 22 Norte 0 1010.6 -1 74
2017-08-13 04:00:00 22 13 Norte 22 Norte 0 1010.7 -1.3 67
2017-08-13 03:00:00 22.4 14 Norte 26 Norte 0 1011 -1.1 57
2017-08-13 02:00:00 22.8 18 Norte 39 Norte 0 1011.6 -0.6 68
2017-08-13 01:00:00 23.9 25 Norte 39 Norte 0 1012 0 58
2017-08-13 00:00:00 25.7 23 Norte 33 Norte 0 1012.1 0.5 37
2017-08-12 23:00:00 25.7 21 Norte 33 Norte 0 1012.2 0.7 41
2017-08-12 22:00:00 25 22 Norte 33 Norte 0 1012 0.6 58
2017-08-12 21:00:00 25.2 20 Norte 33 Norte 0 1011.6 -0.2 65
2017-08-12 20:00:00 26.2 22 Norte 41 Norte 0 1011.5 -0.5 64
2017-08-12 19:00:00 28 29 Norte 42 Norte 0 1011.4 -0.9 54
2017-08-12 18:00:00 29.6 29 Norte 46 Norte 0 1011.8 -0.7 41
2017-08-12 17:00:00 29.3 30 Norte 48 Norte 0 1012 -1.2 43
2017-08-12 16:00:00 27.7 45 Norte 55 Norte 0 1012.3 -0.7 57
2017-08-12 15:00:00 27.5 42 Norte 59 Norte 0 1012.5 -1.1 57
2017-08-12 14:00:00 27.3 46 Norte 58 Nordeste 0 1013.2 -0.1 56
2017-08-12 13:00:00 26.1 43 Norte 58 Norte 0 1013 0.8 60
2017-08-12 12:00:00 25.9 45 Norte 55 Norte 0 1013.6 1.6 62
2017-08-12 11:00:00 24.8 42 Norte 58 Norte 0 1013.3 1 68
2017-08-12 10:00:00 23.8 42 Norte 55 Norte 0 1012.2 0.9 70
2017-08-12 09:00:00 22.6 23 Norte 35 Norte 0 1012 0.4 73
2017-08-12 08:00:00 21.2 21 Norte 37 Norte 0 1012.3 0.7 81
2017-08-12 07:00:00 21.1 21 Norte 35 Norte 0 1011.3 0 82
2017-08-12 06:00:00 21.3 23 Norte 41 Norte 0 1011.6 0 83
2017-08-12 05:00:00 21.5 28 Norte 41 Norte 0 1011.6 -0.7 83
2017-08-12 04:00:00 21.5 18 Norte 30 Norte 0 1011.3 -1.1 77
2017-08-12 03:00:00 21.7 19 Norte 35 Norte 0 1011.6 -0.7 76
2017-08-12 02:00:00 22 21 Norte 35 Norte 0 1012.3 0.4 80
2017-08-12 01:00:00 22.4 22 Norte 41 Norte 0 1012.4 0.9 78
2017-08-12 00:00:00 23.2 22 Norte 41 Norte 0 1012.3 1.4 65
2017-08-11 23:00:00 23.1 26 Norte 39 Norte 0 1011.9 1.1 71
2017-08-11 22:00:00 22.9 28 Norte 45 Norte 0 1011.5 0.7 72
2017-08-11 21:00:00 24 25 Norte 41 Norte 0 1010.9 0 64
2017-08-11 20:00:00 25.7 28 Norte 45 Norte 0 1010.8 -0.6 46
2017-08-11 19:00:00 27 31 Norte 48 Norte 0 1010.8 -0.4 33
2017-08-11 18:00:00 27.8 29 Norte 50 Norte 0 1010.9 -0.9 36
2017-08-11 17:00:00 27.8 33 Norte 52 Norte 0 1011.4 -0.4 39
2017-08-11 16:00:00 28.6 37 Norte 50 Norte 0 1011.2 -1.2 37
2017-08-11 15:00:00 28 35 Norte 50 Norte 0 1011.8 -0.5 37
2017-08-11 14:00:00 27.6 31 Norte 48 Norte 0 1011.8 -0.3 42
2017-08-11 13:00:00 27 30 Norte 52 Norte 0 1012.4 0.7 45
2017-08-11 12:00:00 26.6 33 Norte 50 Norte 0 1012.3 1.2 47
2017-08-11 11:00:00 26.4 33 Norte 48 Norte 0 1012.1 1.6 42
2017-08-11 10:00:00 25.3 30 Norte 54 Norte 0 1011.7 1.6 48
2017-08-11 09:00:00 24.1 26 Norte 45 Norte 0 1011.1 1.7 50
2017-08-11 08:00:00 21.7 30 Norte 54 Norte 0 1010.5 1.6 75
2017-08-11 07:00:00 21.6 33 Norte 52 Norte 0 1010.1 1 76
2017-08-11 06:00:00 21.5 32 Norte 55 Norte 0 1009.4 0 76
2017-08-11 05:00:00 21.6 34 Norte 58 Norte 0 1008.9 -1.2 76
2017-08-11 04:00:00 21.6 32 Norte 55 Norte 0 1009.1 -1.2 76
2017-08-11 03:00:00 21.8 35 Norte 55 Norte 0 1009.4 -1.3 74
2017-08-11 02:00:00 21.9 33 Norte 54 Norte 0 1010.1 -0.4 75
2017-08-11 01:00:00 22 35 Norte 58 Norte 0 1010.3 0.3 76
2017-08-11 00:00:00 22.5 32 Norte 52 Norte 0 1010.7 1.4 71
2017-08-10 23:00:00 24 33 Norte 50 Norte 0 1010.5 1.1 52
2017-08-10 22:00:00 25.5 32 Norte 52 Norte 0 1010 0.9 34
2017-08-10 21:00:00 26.6 31 Norte 54 Norte 0 1009.3 0.2 26
2017-08-10 20:00:00 25.4 40 Norte 58 Norte 0 1009.4 0.3 47
2017-08-10 19:00:00 25.5 35 Norte 59 Norte 0 1009.1 -0.9 59
2017-08-10 18:00:00 25.9 43 Norte 59 Norte 0 1009.1 -1.5 61
2017-08-10 17:00:00 26.4 40 Norte 55 Norte 0 1009.1 -1.8 61
2017-08-10 16:00:00 27.1 36 Norte 55 Norte 0 1010 -1.3 58
2017-08-10 15:00:00 26.7 42 Norte 61 Norte 0 1010.6 -0.7 60
2017-08-10 14:00:00 26.9 45 Norte 58 Norte 0 1010.9 -0.3 60
2017-08-10 13:00:00 27.7 39 Norte 58 Norte 0 1011.3 0.8 56
2017-08-10 12:00:00 27.1 36 Norte 55 Norte 0 1011.3 0.7 58
2017-08-10 11:00:00 25.3 36 Norte 54 Norte 0 1011.2 1 65
2017-08-10 10:00:00 25.2 31 Norte 48 Norte 0 1010.5 0.7 64
2017-08-10 09:00:00 24.2 30 Norte 46 Norte 0 1010.6 0.6 66
2017-08-10 08:00:00 23.4 26 Norte 41 Norte 0 1010.2 0.4 67
2017-08-10 07:00:00 24.2 27 Norte 50 Norte 0 1009.8 0.1 60
2017-08-10 06:00:00 25.4 26 Norte 48 Noroeste 0 1010 -0.1 49
2017-08-10 05:00:00 26.4 31 Norte 52 Norte 0 1009.8 -1.1 40
2017-08-10 04:00:00 26.4 28 Norte 52 Norte 0 1009.7 -1.4 33
2017-08-10 03:00:00 26 29 Norte 54 Norte 0 1010.1 -1 37
2017-08-10 02:00:00 26.4 31 Norte 54 Norte 0 1010.9 0.1 36
2017-08-10 01:00:00 26.1 29 Norte 63 Norte 0 1011.1 1.1 41
2017-08-10 00:00:00 27 31 Norte 59 Noroeste 0 1011.1 1.6 33
2017-08-09 23:00:00 26.3 31 Norte 52 Norte 0 1010.8 1.8 39
2017-08-09 22:00:00 26.4 30 Norte 54 Norte 0 1010 1.1 40
2017-08-09 21:00:00 26.3 32 Norte 50 Norte 0 1009.5 0.8 42
2017-08-09 20:00:00 26.7 32 Norte 55 Norte 0 1009 0.2 47
2017-08-09 19:00:00 26.4 39 Norte 58 Norte 0 1008.9 -0.2 57
2017-08-09 18:00:00 27 37 Norte 59 Norte 0 1008.7 -0.6 61
2017-08-09 17:00:00 27.5 43 Norte 61 Norte 0 1008.8 -0.7 60
2017-08-09 16:00:00 27.7 45 Norte 61 Norte 0 1009.1 -0.4 59
2017-08-09 15:00:00 28.2 40 Norte 58 Norte 0 1009.3 -0.7 57
2017-08-09 14:00:00 28.7 34 Norte 54 Norte 0 1009.5 -0.3 56
2017-08-09 13:00:00 29.1 33 Norte 55 Norte 0 1009.5 -0.1 52
2017-08-09 12:00:00 27.4 32 Norte 52 Norte 0 1010 0.4 58
2017-08-09 11:00:00 26.9 31 Norte 50 Norte 0 1009.8 0.5 59
2017-08-09 10:00:00 25.8 28 Norte 48 Norte 0 1009.6 0.8 63
2017-08-09 09:00:00 24.5 25 Norte 37 Norte 0 1009.6 1 68
2017-08-09 08:00:00 23.3 21 Norte 37 Norte 0 1009.3 0.6 72
2017-08-09 07:00:00 23.2 22 Norte 35 Norte 0 1008.8 0 73
2017-08-09 06:00:00 23.3 23 Norte 33 Norte 0 1008.6 -0.2 74
2017-08-09 05:00:00 23 16 Norte 32 Norte 0 1008.7 0.2 78
2017-08-09 04:00:00 23.3 25 Norte 37 Norte 0 1008.8 0 77
2017-08-09 03:00:00 23.2 16 Norte 46 Norte 0 1008.8 -0.5 79
2017-08-09 02:00:00 23.4 26 Norte 50 Norte 0 1008.5 -0.6 79
2017-08-09 01:00:00 23.5 32 Norte 50 Norte 0 1008.8 0.4 79
2017-08-09 00:00:00 23.6 31 Norte 45 Norte 0 1009.3 1.5 80
2017-08-08 23:00:00 23.8 26 Norte 42 Norte 0 1009.1 1.9 80
2017-08-08 22:00:00 24.1 24 Norte 42 Norte 0 1008.4 1.3 79
2017-08-08 21:00:00 24.3 23 Norte 35 Norte 0 1007.8 0.7 79
2017-08-08 20:00:00 25.4 20 Norte 39 Norte 0 1007.2 0.2 76
2017-08-08 19:00:00 25.8 31 Norte 41 Norte 0 1007.1 -0.5 74
2017-08-08 18:00:00 26.8 33 Norte 42 Norte 0 1007.1 -0.4 70
2017-08-08 17:00:00 27.6 34 Norte 41 Nordeste 0 1007 -1.1 66
2017-08-08 16:00:00 27.5 36 Norte 48 Norte 0 1007.6 -0.6 67
2017-08-08 15:00:00 27.9 37 Norte 46 Norte 0 1007.5 -0.7 64
2017-08-08 14:00:00 27.9 38 Norte 45 Norte 0 1008.1 0 65
2017-08-08 13:00:00 27.3 33 Norte 46 Norte 0 1008.2 0.4 67
2017-08-08 12:00:00 26.8 35 Norte 48 Norte 0 1008.2 0.9 69
2017-08-08 11:00:00 26 27 Norte 42 Nordeste 0 1008.1 1.8 72
2017-08-08 10:00:00 25.2 30 Norte 46 Norte 0 1007.8 1.7 75
2017-08-08 09:00:00 23.9 22 Norte 35 Norte 0 1007.3 1.5 81
2017-08-08 08:00:00 23 24 Norte 45 Norte 0 1006.3 0.4 86
2017-08-08 07:00:00 23 19 Norte 32 Norte 0 1006.1 0.3 88
2017-08-08 06:00:00 23.2 9 Norte 15 Norte 0 1005.8 -0.6 85
2017-08-08 05:00:00 23.6 5 Norte 17 Norte 0 1005.9 -1 85
2017-08-08 04:00:00 23.6 12 Norte 39 Norte 0 1005.8 -0.6 85
2017-08-08 03:00:00 23.6 24 Norte 41 Norte 0 1006.4 0.2 84
2017-08-08 02:00:00 23.7 22 Norte 37 Norte 0 1006.9 0.7 85
2017-08-08 01:00:00 24.6 13 Norte 41 Norte 0 1006.4 1.1 77
2017-08-08 00:00:00 24.3 28 Norte 46 Norte 0 1006.2 1.5 81
2017-08-07 23:00:00 24.6 21 Norte 41 Norte 0 1006.2 2.3 80
2017-08-07 22:00:00 25.2 20 Norte 33 Norte 0 1005.3 1.8 77
2017-08-07 21:00:00 26.2 12 Nordeste 24 Norte 0 1004.7 0.7 72
2017-08-07 20:00:00 27.2 10 Norte 32 Norte 0 1003.9 -0.5 69
2017-08-07 19:00:00 28.1 22 Norte 39 Norte 0 1003.5 -1.1 65
2017-08-07 18:00:00 28.5 24 Norte 41 Norte 0 1004 -0.9 64
2017-08-07 17:00:00 29.4 33 Norte 41 Norte 0 1004.4 -0.6 61
2017-08-07 16:00:00 30.9 30 Norte 41 Nordeste 0 1004.6 -1.1 54
2017-08-07 15:00:00 30.7 32 Norte 45 Norte 0 1004.9 -0.9 54
2017-08-07 14:00:00 30 33 Norte 50 Norte 0 1005 -0.1 56
2017-08-07 13:00:00 27.9 35 Norte 50 Norte 0 1005.7 1.1 64
2017-08-07 12:00:00 26.4 31 Norte 50 Norte 0 1005.8 1.5 72
2017-08-07 11:00:00 26.6 27 Norte 41 Norte 0 1005.1 0.5 70
2017-08-07 10:00:00 25.2 27 Norte 41 Norte 0 1004.6 0.7 75
2017-08-07 09:00:00 24.4 19 Norte 28 Norte 0 1004.3 1.2 77
2017-08-07 08:00:00 23.6 5 Norte 22 Sur 0 1004.6 0.9 81
2017-08-07 07:00:00 23.4 9 Sur 15 Sur 0 1003.9 -0.6 84
2017-08-07 06:00:00 23.8 2 Norte 18 Nordeste 0 1003.1 -2.3 76
2017-08-07 05:00:00 23.4 17 Norte 35 Norte 0 1003.7 -2.1 81
2017-08-07 04:00:00 23.2 24 Norte 45 Norte 0 1004.5 -2.1 83
2017-08-07 03:00:00 24.8 33 Norte 46 Nordeste 0 1005.4 -0.5 75
2017-08-07 02:00:00 23.3 28 Norte 46 Norte 0 1005.8 1.1 83
2017-08-07 01:00:00 23.4 31 Norte 59 Norte 0 1006.6 2 83
2017-08-07 00:00:00 23.4 34 Norte 52 Norte 0 1005.9 1.3 83
2017-08-06 23:00:00 23.9 22 Norte 33 Norte 0 1004.7 0.9 79
2017-08-06 22:00:00 24.2 19 Norte 39 Norte 0 1004.6 0.3 77
2017-08-06 21:00:00 24.4 22 Norte 42 Norte 0 1004.6 0.3 75
2017-08-06 20:00:00 25 31 Norte 46 Norte 0 1003.8 -1.5 74
2017-08-06 19:00:00 25.7 29 Norte 52 Norte 0 1004.3 -0.6 71
2017-08-06 18:00:00 27.1 35 Norte 52 Norte 0 1004.3 -0.9 66
2017-08-06 17:00:00 27.6 39 Norte 50 Norte 0 1005.3 -1 65
2017-08-06 16:00:00 27.9 38 Norte 52 Norte 0 1004.9 -2.6 63
2017-08-06 15:00:00 27.9 36 Norte 54 Norte 0 1005.2 -2.6 62
2017-08-06 14:00:00 27.7 41 Norte 54 Norte 0 1006.3 -0.5 63
2017-08-06 13:00:00 26.8 40 Norte 54 Nordeste 0 1007.5 1.1 65
2017-08-06 12:00:00 26.2 40 Norte 54 Norte 0 1007.8 1.2 66
2017-08-06 11:00:00 25.4 35 Norte 52 Norte 0 1006.8 1 68
2017-08-06 10:00:00 24.4 27 Norte 50 Norte 0 1006.4 0.6 71
2017-08-06 09:00:00 23.2 22 Norte 37 Norte 0 1006.6 1 76
2017-08-06 08:00:00 22.1 18 Norte 35 Norte 0 1005.8 0 81
2017-08-06 07:00:00 22 14 Norte 26 Norte 0 1005.8 -0.4 82
2017-08-06 06:00:00 22.3 12 Norte 26 Norte 0 1005.6 -1.1 81
2017-08-06 05:00:00 22.6 18 Norte 41 Norte 0 1005.8 -1.7 79
2017-08-06 04:00:00 22.9 25 Norte 45 Norte 0 1006.2 -1.9 79
2017-08-06 03:00:00 23 26 Norte 46 Norte 0 1006.7 -1.6 78
2017-08-06 02:00:00 23.3 28 Norte 45 Norte 0 1007.5 -0.6 77
2017-08-06 01:00:00 23.4 30 Norte 50 Norte 0 1008.1 0.5 73
2017-08-06 00:00:00 23.4 28 Norte 48 Norte 0 1008.3 1.1 77
2017-08-05 23:00:00 23.6 28 Norte 52 Norte 0 1008.1 1.3 75
2017-08-05 22:00:00 23.7 30 Norte 52 Norte 0 1007.6 0.9 77
2017-08-05 21:00:00 23.9 33 Norte 52 Norte 0 1007.2 0.3 73
2017-08-05 20:00:00 24.8 28 Norte 46 Norte 0 1006.8 -0.6 69
2017-08-05 19:00:00 25.8 31 Norte 48 Norte 0 1006.7 -0.6 66
2017-08-05 18:00:00 26.4 35 Norte 58 Norte 0 1006.9 -1.2 66
2017-08-05 17:00:00 27.4 30 Norte 54 Norte 0 1007.4 -1 61
2017-08-05 16:00:00 27.5 45 Norte 55 Norte 0 1007.3 -1.5 60
2017-08-05 15:00:00 27.3 42 Norte 59 Norte 0 1008.1 -0.7 59
2017-08-05 14:00:00 27.6 46 Norte 58 Norte 0 1008.4 -0.6 59
2017-08-05 13:00:00 27.1 40 Norte 59 Norte 0 1008.8 -0.1 58
2017-08-05 12:00:00 26.7 32 Norte 50 Norte 0 1008.8 -0.3 61
2017-08-05 11:00:00 26.2 27 Norte 48 Norte 0 1009 0.1 62
2017-08-05 10:00:00 25.1 26 Norte 42 Norte 0 1008.9 0.2 63
2017-08-05 09:00:00 23.9 21 Norte 41 Norte 0 1009.1 0.7 67
2017-08-05 08:00:00 22.5 16 Norte 39 Norte 0 1008.9 0.3 73
2017-08-05 07:00:00 22.6 26 Norte 45 Noroeste 0 1008.7 -0.3 70
2017-08-05 06:00:00 22.7 23 Norte 45 Norte 0 1008.4 -0.5 72
2017-08-05 05:00:00 22.8 23 Norte 39 Norte 0 1008.6 -1.1 73
2017-08-05 04:00:00 22.7 23 Norte 45 Norte 0 1009 -1 71
2017-08-05 03:00:00 22.7 26 Norte 48 Norte 0 1008.9 -1.3 71
2017-08-05 02:00:00 22.9 21 Norte 42 Norte 0 1009.7 -0.3 72
2017-08-05 01:00:00 23 24 Norte 39 Norte 0 1010 0.2 73
2017-08-05 00:00:00 23.2 23 Norte 42 Norte 0 1010.2 0.6 75
2017-08-04 23:00:00 23.2 25 Norte 41 Norte 0 1010 0.8 73
2017-08-04 22:00:00 23.3 24 Norte 39 Norte 0 1009.8 1 71
2017-08-04 21:00:00 23.5 25 Norte 42 Norte 0 1009.6 0.6 70
2017-08-04 20:00:00 24.9 26 Norte 41 Norte 0 1009.2 -0.1 63
2017-08-04 19:00:00 25.5 31 Norte 48 Norte 0 1008.8 -0.8 63
2017-08-04 18:00:00 26.6 35 Norte 52 Norte 0 1009 -1 58
2017-08-04 17:00:00 27 40 Norte 52 Nordeste 0 1009.3 -1.2 60
2017-08-04 16:00:00 27.1 44 Norte 54 Nordeste 0 1009.6 -1.3 61
2017-08-04 15:00:00 27.8 38 Norte 52 Norte 0 1010 -1.4 55
2017-08-04 14:00:00 28.3 39 Norte 50 Norte 0 1010.5 -0.7 53
2017-08-04 13:00:00 27.3 38 Norte 54 Norte 0 1010.9 -0.2 55
2017-08-04 12:00:00 26.3 39 Norte 52 Norte 0 1011.4 0.8 58
2017-08-04 11:00:00 25.1 31 Norte 46 Norte 0 1011.2 1.2 60
2017-08-04 10:00:00 24.2 31 Norte 46 Norte 0 1011.1 1 63
2017-08-04 09:00:00 23.1 23 Norte 42 Norte 0 1010.6 0.1 69
2017-08-04 08:00:00 21.9 23 Norte 37 Norte 0 1010 -0.4 77
2017-08-04 07:00:00 21.8 19 Norte 30 Norte 0 1010.1 -0.5 69
2017-08-04 06:00:00 21.5 14 Norte 33 Norte 0 1010.5 -0.5 71
2017-08-04 05:00:00 21.9 24 Norte 39 Norte 0 1010.4 -1.4 76
2017-08-04 04:00:00 21.9 21 Norte 33 Norte 0 1010.6 -2.1 77
2017-08-04 03:00:00 22.1 24 Norte 37 Norte 0 1011 -2.3 73
2017-08-04 02:00:00 21.7 23 Norte 37 Norte 0 1011.8 -1.4 79
2017-08-04 01:00:00 22.2 24 Norte 39 Norte 0 1012.7 0 76
2017-08-04 00:00:00 22.3 20 Norte 37 Norte 0 1013.3 0.8 73
2017-08-03 23:00:00 22.7 24 Norte 41 Norte 0 1013.2 1 72
2017-08-03 22:00:00 22.9 23 Norte 45 Norte 0 1012.7 0.8 69
2017-08-03 21:00:00 23.4 22 Norte 50 Norte 0 1012.5 0.7 65
2017-08-03 20:00:00 24.2 29 Norte 48 Norte 0 1012.2 0.3 62
2017-08-03 19:00:00 24.8 33 Norte 50 Norte 0 1011.9 -0.4 58
2017-08-03 18:00:00 25.7 32 Norte 55 Norte 0 1011.8 -1.1 56
2017-08-03 17:00:00 26.1 45 Norte 61 Norte 0 1011.9 -1.4 57
2017-08-03 16:00:00 26.3 40 Norte 63 Norte 0 1012.3 -1.4 55
2017-08-03 15:00:00 25.9 44 Norte 63 Norte 0 1012.9 -1.1 58
2017-08-03 14:00:00 26.2 50 Norte 63 Norte 0 1013.3 -0.7 56
2017-08-03 13:00:00 25.9 44 Norte 59 Norte 0 1013.7 -0.1 55
2017-08-03 12:00:00 24.9 38 Norte 59 Norte 0 1014 0.3 60
2017-08-03 11:00:00 24.1 31 Norte 54 Norte 0 1014 0.2 58
2017-08-03 10:00:00 23.5 30 Norte 50 Norte 0 1013.8 0.4 60
2017-08-03 09:00:00 22.8 30 Norte 42 Norte 0 1013.7 0.4 67
2017-08-03 08:00:00 21.5 21 Norte 41 Norte 0 1013.8 0.4 71
2017-08-03 07:00:00 21.3 25 Norte 42 Norte 0 1013.4 -0.1 73
2017-08-03 06:00:00 21.7 22 Norte 41 Norte 0 1013.3 -0.8 75
2017-08-03 05:00:00 21.8 27 Norte 42 Norte 0 1013.4 -1.2 74
2017-08-03 04:00:00 21.9 21 Norte 42 Noroeste 0 1013.5 -1.6 68
2017-08-03 03:00:00 21.8 21 Norte 42 Norte 0 1014.1 -1.4 75
2017-08-03 02:00:00 22 23 Norte 45 Norte 0 1014.6 -1.1 76
2017-08-03 01:00:00 22.3 22 Norte 41 Norte 0 1015.1 0 74
2017-08-03 00:00:00 22.4 23 Norte 46 Norte 0 1015.5 1 74
2017-08-02 23:00:00 22.8 26 Norte 41 Norte 0 1015.7 2.1 73
2017-08-02 22:00:00 22.9 28 Norte 48 Norte 0 1015.1 1.7 73
2017-08-02 21:00:00 23 29 Norte 48 Norte 0 1014.5 1 71
2017-08-02 20:00:00 24 32 Norte 48 Norte 0 1013.6 0.2 65
2017-08-02 19:00:00 24.9 33 Norte 52 Norte 0 1013.4 -0.4 63
2017-08-02 18:00:00 25.7 37 Norte 54 Norte 0 1013.5 -0.3 59
2017-08-02 17:00:00 25.9 39 Norte 54 Norte 0 1013.4 -0.8 59
2017-08-02 16:00:00 26.7 41 Norte 54 Norte 0 1013.8 -0.7 57
2017-08-02 15:00:00 26.7 43 Norte 55 Norte 0 1013.8 -0.6 57
2017-08-02 14:00:00 26.7 44 Norte 54 Nordeste 0 1014.2 0.2 57
2017-08-02 13:00:00 26.4 44 Norte 55 Norte 0 1014.5 0.9 58
2017-08-02 12:00:00 26.1 39 Norte 54 Norte 0 1014.4 1 59
2017-08-02 11:00:00 25.1 30 Norte 50 Norte 0 1014 1 59
2017-08-02 10:00:00 24.3 27 Norte 46 Norte 0 1013.6 1 63
2017-08-02 09:00:00 23.1 26 Norte 42 Norte 0 1013.4 1 64
2017-08-02 08:00:00 21.4 24 Norte 39 Norte 0 1013 0.8 75
2017-08-02 07:00:00 21.2 21 Norte 35 Norte 0 1012.6 0.4 73
2017-08-02 06:00:00 21.4 21 Norte 41 Norte 0 1012.4 0.2 79
2017-08-02 05:00:00 21.6 26 Norte 41 Norte 0 1012.2 -0.6 81
2017-08-02 04:00:00 22 26 Norte 45 Norte 0 1012.2 -0.9 82
2017-08-02 03:00:00 22.4 22 Norte 39 Norte 0 1012.2 -1.2 74
2017-08-02 02:00:00 22.4 24 Norte 41 Norte 0 1012.8 -0.6 73
2017-08-02 01:00:00 22.6 27 Norte 42 Norte 0 1013.1 0.2 72
2017-08-02 00:00:00 22.8 21 Norte 35 Norte 0 1013.4 0.9 71
2017-08-01 23:00:00 23.1 23 Norte 37 Norte 0 1013.4 1.4 67
2017-08-01 22:00:00 23.6 22 Norte 37 Norte 0 1012.9 1.3 63
2017-08-01 21:00:00 24.2 23 Norte 41 Norte 0 1012.5 0.9 60
2017-08-01 20:00:00 25.2 32 Norte 46 Norte 0 1012 0.6 55
2017-08-01 19:00:00 25.9 31 Norte 48 Norte 0 1011.6 0.3 59
2017-08-01 18:00:00 26.5 32 Norte 52 Norte 0 1011.6 0.1 59
2017-08-01 17:00:00 26.7 45 Norte 55 Norte 0 1011.4 -0.2 60
2017-08-01 16:00:00 27.1 49 Norte 61 Norte 0 1011.3 -0.5 57
2017-08-01 15:00:00 27.1 53 Norte 63 Norte 0 1011.5 -0.3 58
2017-08-01 14:00:00 27.3 45 Norte 59 Norte 0 1011.6 0.2 56
2017-08-01 13:00:00 27.1 31 Norte 59 Norte 0 1011.8 0.7 55
2017-08-01 12:00:00 26.2 40 Norte 55 Norte 0 1011.8 0.8 58
2017-08-01 11:00:00 25.4 32 Norte 50 Norte 0 1011.4 0.5 57
2017-08-01 10:00:00 23.8 31 Norte 48 Norte 0 1011.1 1.1 63
2017-08-01 09:00:00 23.2 26 Norte 39 Norte 0 1011 1.2 66
2017-08-01 08:00:00 22 22 Norte 39 Norte 0 1010.9 1 73
2017-08-01 07:00:00 21.6 24 Norte 39 Norte 0 1010 -0.1 77
2017-08-01 06:00:00 21.6 22 Norte 41 Norte 0 1009.8 -0.5 76
2017-08-01 05:00:00 21.5 23 Norte 41 Norte 0 1009.9 -0.6 77
2017-08-01 04:00:00 21.7 21 Norte 39 Norte 0 1010.1 -0.7 73
2017-08-01 03:00:00 22.1 23 Norte 45 Norte 0 1010.3 -1 71
2017-08-01 02:00:00 22.2 23 Norte 41 Norte 0 1010.5 -0.4 69
2017-08-01 01:00:00 22.2 21 Norte 41 Norte 0 1010.8 0.4 70
2017-08-01 00:00:00 22.1 23 Norte 39 Norte 0 1011.3 1.5 74
2017-07-31 23:00:00 22.4 25 Norte 41 Norte 0 1010.9 1.4 74
2017-07-31 22:00:00 22.6 28 Norte 46 Norte 0 1010.4 1 68
2017-07-31 21:00:00 23.1 28 Norte 45 Norte 0 1009.8 0.2 65
2017-07-31 20:00:00 24.4 27 Norte 50 Norte 0 1009.5 -0.2 62
2017-07-31 19:00:00 25.1 31 Norte 58 Norte 0 1009.4 -0.3 59
2017-07-31 18:00:00 25.7 42 Norte 55 Norte 0 1009.6 -0.5 56
2017-07-31 17:00:00 26.4 45 Norte 61 Norte 0 1009.7 -0.4 53
2017-07-31 16:00:00 26.1 43 Norte 63 Norte 0 1009.7 -0.6 54
2017-07-31 15:00:00 26.2 43 Norte 67 Norte 0 1010.1 -0.3 53
2017-07-31 14:00:00 25.5 48 Norte 63 Norte 0 1010.1 0.3 56
2017-07-31 13:00:00 25.5 45 Norte 68 Norte 0 1010.3 0.8 54
2017-07-31 12:00:00 24.7 44 Norte 58 Norte 0 1010.4 0.8 57
2017-07-31 11:00:00 23.8 42 Norte 61 Norte 0 1009.8 0.1 60
2017-07-31 10:00:00 22.7 38 Norte 54 Norte 0 1009.5 0 64
2017-07-31 09:00:00 22.1 30 Norte 48 Norte 0 1009.6 0.6 67
2017-07-31 08:00:00 21.1 28 Norte 42 Norte 0 1009.7 0.6 70
2017-07-31 07:00:00 21.1 28 Norte 48 Norte 0 1009.5 0.1 71
2017-07-31 06:00:00 21.3 30 Norte 54 Norte 0 1009 -0.5 70
2017-07-31 05:00:00 21.3 33 Norte 50 Norte 0 1009.1 -1.1 71
2017-07-31 04:00:00 21.3 37 Norte 58 Norte 0 1009.4 -1.7 71
2017-07-31 03:00:00 21.3 24 Norte 48 Norte 0 1009.5 -1.4 72
2017-07-31 02:00:00 21.4 28 Norte 50 Norte 0 1010.2 -0.6 73
2017-07-31 01:00:00 21.5 30 Norte 50 Norte 0 1011.1 1 74
2017-07-31 00:00:00 21.6 37 Norte 48 Norte 0 1010.9 1.1 75
2017-07-30 23:00:00 21.8 28 Norte 45 Norte 0 1010.8 1.1 75
2017-07-30 22:00:00 22.2 24 Norte 45 Norte 0 1010.1 0.5 74
2017-07-30 21:00:00 22.6 26 Norte 50 Norte 0 1009.8 0 71
2017-07-30 20:00:00 23.4 36 Norte 52 Norte 0 1009.7 -0.3 70
2017-07-30 19:00:00 24.1 36 Norte 59 Norte 0 1009.6 -0.1 67
2017-07-30 18:00:00 24.8 45 Norte 58 Norte 0 1009.8 -0.1 66
2017-07-30 17:00:00 25.6 41 Norte 61 Norte 0 1010 0.3 64
2017-07-30 16:00:00 25.6 32 Norte 61 Norte 0 1009.7 -0.4 62
2017-07-30 15:00:00 26.2 42 Norte 61 Norte 0 1009.9 -0.5 61
2017-07-30 14:00:00 25.8 42 Norte 63 Norte 0 1009.7 -0.3 63
2017-07-30 13:00:00 25.7 39 Norte 59 Norte 0 1010.1 0 64
2017-07-30 12:00:00 25.1 38 Norte 59 Norte 0 1010.4 0.2 65
2017-07-30 11:00:00 24 34 Norte 58 Norte 0 1010 -0.1 69
2017-07-30 10:00:00 23.2 35 Norte 55 Norte 0 1010.1 0.4 73
2017-07-30 09:00:00 21.9 31 Norte 45 Norte 0 1010.2 0.7 78
2017-07-30 08:00:00 21 26 Norte 45 Norte 0 1010.1 0.5 84
2017-07-30 07:00:00 20.8 26 Norte 39 Norte 0 1009.7 -0.3 85
2017-07-30 06:00:00 21 27 Norte 41 Norte 0 1009.5 -0.8 86
2017-07-30 05:00:00 21.3 27 Norte 42 Norte 0 1009.6 -1.3 85
2017-07-30 04:00:00 22 25 Norte 37 Norte 0 1010 -1.5 79
2017-07-30 03:00:00 22 24 Norte 37 Norte 0 1010.3 -1.3 81
2017-07-30 02:00:00 22.1 25 Norte 37 Norte 0 1010.9 -0.6 83
2017-07-30 01:00:00 22.5 27 Norte 41 Norte 0 1011.5 0.3 84
2017-07-30 00:00:00 22.9 28 Norte 46 Norte 0 1011.6 1 79
2017-07-29 23:00:00 23 30 Norte 46 Norte 0 1011.5 1.6 81
2017-07-29 22:00:00 23.5 26 Norte 45 Norte 0 1011.2 1.7 80
2017-07-29 21:00:00 23.8 30 Norte 45 Norte 0 1010.6 0.9 80
2017-07-29 20:00:00 25 28 Norte 50 Norte 0 1009.9 -0.3 76
2017-07-29 19:00:00 26.6 33 Norte 50 Norte 0 1009.5 -1.1 68
2017-07-29 18:00:00 27.4 36 Norte 46 Norte 0 1009.7 -1.1 67
2017-07-29 17:00:00 28.5 35 Norte 45 Norte 0 1010.2 -0.9 63
2017-07-29 16:00:00 29.3 32 Norte 46 Nordeste 0 1010.6 -1.2 59
2017-07-29 15:00:00 28.5 37 Norte 45 Nordeste 0 1010.8 -1.1 63
2017-07-29 14:00:00 28.8 36 Norte 45 Nordeste 0 1011.1 -0.6 61
2017-07-29 13:00:00 27.4 33 Norte 41 Norte 0 1011.8 0.7 66
2017-07-29 12:00:00 27.1 34 Norte 39 Nordeste 0 1011.9 1 68
2017-07-29 11:00:00 26.7 24 Norte 37 Norte 0 1011.7 1.2 66
2017-07-29 10:00:00 26.3 24 Norte 35 Norte 0 1011.1 1.3 59
2017-07-29 09:00:00 25.3 19 Norte 33 Norte 0 1010.9 1.3 55
2017-07-29 08:00:00 24 17 Norte 28 Norte 0 1010.5 1 58
2017-07-29 07:00:00 24.6 19 Norte 33 Norte 0 1009.8 0.4 48
2017-07-29 06:00:00 24.8 16 Norte 32 Norte 0 1009.6 -0.3 46
2017-07-29 05:00:00 25.9 19 Norte 30 Norte 0 1009.5 -0.8 31
2017-07-29 04:00:00 26.2 21 Norte 33 Norte 0 1009.4 -1.2 33
2017-07-29 03:00:00 26.2 19 Norte 35 Norte 0 1009.9 -1.1 41
2017-07-29 02:00:00 28.4 16 Norte 28 Norte 0 1010.3 -0.9 23
2017-07-29 01:00:00 26.9 17 Norte 33 Norte 0 1010.6 0.5 38
2017-07-29 00:00:00 26.2 19 Norte 32 Norte 0 1011 1.8 48
2017-07-28 23:00:00 26.1 18 Norte 32 Norte 0 1011.2 2.3 52
2017-07-28 22:00:00 25.3 23 Norte 41 Norte 0 1010.1 1.2 63
2017-07-28 21:00:00 25.3 25 Norte 45 Norte 0 1009.2 -0.1 68
2017-07-28 20:00:00 26.9 24 Norte 41 Norte 0 1008.9 -0.4 62
2017-07-28 19:00:00 30 27 Norte 35 Norte 0 1008.9 -0.9 50
2017-07-28 18:00:00 32.4 22 Norte 39 Norte 0 1009.3 -0.3 30
2017-07-28 17:00:00 32.8 32 Nordeste 39 Nordeste 0 1009.3 -0.7 41
2017-07-28 16:00:00 30 32 Nordeste 39 Nordeste 0 1009.8 -0.8 55
2017-07-28 15:00:00 32.4 28 Nordeste 35 Nordeste 0 1009.6 -1.2 47
2017-07-28 14:00:00 31.9 28 Norte 35 Nordeste 0 1010 -1 49
2017-07-28 13:00:00 30.9 19 Norte 24 Norte 0 1010.6 -0.2 45
2017-07-28 12:00:00 29.9 14 Norte 28 Norte 0 1010.8 0.7 48
2017-07-28 11:00:00 28.4 22 Norte 28 Nordeste 0 1011 1.4 52
2017-07-28 10:00:00 26.2 22 Norte 32 Norte 0 1010.8 1.1 56
2017-07-28 09:00:00 25.8 24 Nordeste 32 Nordeste 0 1010.1 1.7 58
2017-07-28 08:00:00 28.3 21 Noroeste 35 Norte 0 1009.6 2.1 32
2017-07-28 07:00:00 27.1 24 Norte 35 Norte 0 1009.7 1.9 40
2017-07-28 06:00:00 27.5 21 Norte 42 Norte 0 1008.4 0 37
2017-07-28 05:00:00 27 26 Norte 45 Norte 0 1007.5 -1.5 38
2017-07-28 04:00:00 27.7 27 Norte 41 Norte 0 1007.8 -1.4 29
2017-07-28 03:00:00 27.6 22 Norte 39 Norte 0 1008.4 -1.1 28
2017-07-28 02:00:00 28.8 23 Norte 39 Norte 0 1009 -0.5 24
2017-07-28 01:00:00 27.5 25 Norte 41 Norte 0 1009.2 -0.1 36
2017-07-28 00:00:00 23.9 22 Norte 39 Norte 0 1009.5 0.9 67
2017-07-27 23:00:00 23.6 27 Norte 42 Norte 0 1009.5 1.3 73
2017-07-27 22:00:00 23.6 30 Norte 46 Norte 0 1009.3 1.4 74
2017-07-27 21:00:00 23.5 26 Norte 42 Norte 0 1008.6 0.8 80
2017-07-27 20:00:00 24.6 27 Norte 45 Norte 0 1008.2 0.2 75
2017-07-27 19:00:00 25.5 29 Norte 46 Norte 0 1007.9 -0.2 71
2017-07-27 18:00:00 26.2 34 Norte 46 Norte 0 1007.8 -0.8 68
2017-07-27 17:00:00 27.1 38 Norte 50 Nordeste 0 1008 -0.5 65
2017-07-27 16:00:00 27.9 38 Nordeste 48 Nordeste 0 1008.1 -0.7 62
2017-07-27 15:00:00 29.5 33 Norte 41 Nordeste 0 1008.6 -0.4 55
2017-07-27 14:00:00 28.5 28 Norte 42 Norte 0 1008.5 -0.6 58
2017-07-27 13:00:00 28.3 30 Norte 41 Norte 0 1008.8 0 58
2017-07-27 12:00:00 26 28 Norte 42 Norte 0 1009 0.5 65
2017-07-27 11:00:00 24.6 30 Norte 46 Norte 0 1009.1 1.3 71
2017-07-27 10:00:00 23.5 28 Norte 45 Norte 0 1008.8 1.5 74
2017-07-27 09:00:00 22.8 22 Norte 37 Norte 0 1008.5 1.8 75
2017-07-27 08:00:00 21.3 24 Norte 37 Norte 0 1007.8 1.4 80
2017-07-27 07:00:00 21.1 27 Norte 46 Norte 0 1007.3 0.2 81
2017-07-27 06:00:00 21 29 Norte 42 Norte 0 1006.7 -0.9 83
2017-07-27 05:00:00 20.9 26 Norte 45 Norte 0 1006.4 -1.8 82
2017-07-27 04:00:00 21 28 Norte 42 Norte 0 1007.1 -1.6 83
2017-07-27 03:00:00 21.2 29 Norte 46 Norte 0 1007.6 -1.2 83
2017-07-27 02:00:00 21.5 29 Norte 46 Norte 0 1008.2 -0.6 81
2017-07-27 01:00:00 21.6 30 Norte 48 Norte 0 1008.7 0.3 80
2017-07-27 00:00:00 21.8 31 Norte 48 Norte 0 1008.8 0.8 80
2017-07-26 23:00:00 22.2 27 Norte 46 Norte 0 1008.8 1.2 78
2017-07-26 22:00:00 22.3 32 Norte 52 Norte 0 1008.4 1.2 78
2017-07-26 21:00:00 22.6 35 Norte 55 Norte 0 1008 0.6 77
2017-07-26 20:00:00 23.6 32 Norte 58 Norte 0 1007.6 0 72
2017-07-26 19:00:00 24.5 40 Norte 55 Norte 0 1007.2 -0.4 69
2017-07-26 18:00:00 25.6 38 Norte 58 Norte 0 1007.4 -0.6 65
2017-07-26 17:00:00 26.1 36 Norte 58 Norte 0 1007.6 -0.9 62
2017-07-26 16:00:00 26.6 35 Norte 59 Norte 0 1007.6 -1.4 60
2017-07-26 15:00:00 26.8 42 Norte 61 Norte 0 1008 -1 60
2017-07-26 14:00:00 26.8 33 Norte 58 Norte 0 1008.5 -0.7 60
2017-07-26 13:00:00 26.2 40 Norte 55 Norte 0 1009 0 61
2017-07-26 12:00:00 26 39 Norte 54 Norte 0 1009 0.2 61
2017-07-26 11:00:00 25.3 33 Norte 50 Norte 0 1009.2 0.9 64
2017-07-26 10:00:00 23.6 31 Norte 48 Norte 0 1009 1.1 70
2017-07-26 09:00:00 22.5 26 Norte 45 Norte 0 1008.8 1.1 74
2017-07-26 08:00:00 21.5 27 Norte 46 Norte 0 1008.3 0.6 78
2017-07-26 07:00:00 21.4 26 Norte 46 Norte 0 1007.9 0 79
2017-07-26 06:00:00 21.5 30 Norte 52 Norte 0 1007.7 -0.9 78
2017-07-26 05:00:00 21.5 31 Norte 54 Norte 0 1007.7 -1.6 79
2017-07-26 04:00:00 21.8 33 Norte 50 Norte 0 1007.9 -1.7 79
2017-07-26 03:00:00 21.9 30 Norte 48 Norte 0 1008.6 -1.1 77
2017-07-26 02:00:00 22.1 30 Norte 50 Norte 0 1009.3 -0.4 76
2017-07-26 01:00:00 22.2 39 Norte 54 Norte 0 1009.6 0.4 76
2017-07-26 00:00:00 22.4 33 Norte 54 Norte 0 1009.7 1 77
2017-07-25 23:00:00 22.6 33 Norte 55 Norte 0 1009.7 1.3 74
2017-07-25 22:00:00 22.7 35 Norte 55 Norte 0 1009.2 1.1 75
2017-07-25 21:00:00 23.1 34 Norte 55 Norte 0 1008.7 0.1 73
2017-07-25 20:00:00 24.1 37 Norte 54 Norte 0 1008.4 -0.5 70
2017-07-25 19:00:00 25.1 43 Norte 59 Norte 0 1008.1 -1.2 66
2017-07-25 18:00:00 25.9 42 Norte 58 Norte 0 1008.6 -0.7 63
2017-07-25 17:00:00 26.2 45 Norte 59 Norte 0 1008.9 -1 63
2017-07-25 16:00:00 26.5 42 Norte 59 Norte 0 1009.3 -1.2 61
2017-07-25 15:00:00 26.5 36 Norte 55 Norte 0 1009.3 -1 63
2017-07-25 14:00:00 25.9 42 Norte 63 Norte 0 1009.9 -0.1 63
2017-07-25 13:00:00 25.5 44 Norte 59 Norte 0 1010.5 0.6 65
2017-07-25 12:00:00 25.4 39 Norte 59 Norte 0 1010.3 0.2 65
2017-07-25 11:00:00 24.7 38 Norte 58 Norte 0 1010 0 65
2017-07-25 10:00:00 24 39 Norte 58 Norte 0 1009.9 0.7 69
2017-07-25 09:00:00 22.5 36 Norte 52 Norte 0 1010.1 0.7 75
2017-07-25 08:00:00 21.7 31 Norte 48 Norte 0 1010 0.1 79
2017-07-25 07:00:00 21.7 33 Norte 52 Norte 0 1009.2 -1 80
2017-07-25 06:00:00 21.8 31 Norte 52 Norte 0 1009.4 -0.9 79
2017-07-25 05:00:00 21.9 32 Norte 50 Norte 0 1009.9 -1.2 80
2017-07-25 04:00:00 21.9 30 Norte 52 Norte 0 1010.2 -1.5 78
2017-07-25 03:00:00 22.1 30 Norte 48 Norte 0 1010.3 -1.8 79
2017-07-25 02:00:00 22.5 36 Norte 59 Norte 0 1011.1 -0.5 75
2017-07-25 01:00:00 22.5 33 Norte 55 Norte 0 1011.7 0.2 77
2017-07-25 00:00:00 22.5 35 Norte 58 Norte 0 1012.1 0.9 78
2017-07-24 23:00:00 22.7 34 Norte 58 Norte 0 1011.6 0.5 75
2017-07-24 22:00:00 23.1 38 Norte 59 Norte 0 1011.5 1.1 72
2017-07-24 21:00:00 23.4 34 Norte 59 Norte 0 1011.2 0.4 71
2017-07-24 20:00:00 24.4 35 Norte 59 Norte 0 1011.1 0.2 66
2017-07-24 19:00:00 25.4 35 Norte 61 Norte 0 1010.4 -0.9 61
2017-07-24 18:00:00 26.1 37 Norte 59 Norte 0 1010.8 -1.1 57
2017-07-24 17:00:00 26.4 37 Norte 68 Norte 0 1010.9 -1.7 58
2017-07-24 16:00:00 26.9 45 Norte 59 Norte 0 1011.3 -1.8 55
2017-07-24 15:00:00 27.1 32 Norte 59 Norte 0 1011.9 -0.7 54
2017-07-24 14:00:00 26.9 31 Norte 58 Norte 0 1012.6 0 55
2017-07-24 13:00:00 25.7 35 Norte 65 Norte 0 1013.1 0.5 60
2017-07-24 12:00:00 25.3 36 Norte 67 Norte 0 1012.6 0.2 61
2017-07-24 11:00:00 24.1 44 Norte 61 Norte 0 1012.6 0.4 65
2017-07-24 10:00:00 23.4 44 Norte 59 Norte 0 1012.6 0.9 68
2017-07-24 09:00:00 22.3 35 Norte 58 Norte 0 1012.4 0.6 73
2017-07-24 08:00:00 21.4 33 Norte 54 Norte 0 1012.2 0.5 74
2017-07-24 07:00:00 21.3 33 Norte 55 Norte 0 1011.7 -0.3 73
2017-07-24 06:00:00 21.3 35 Norte 55 Norte 0 1011.8 -0.8 76
2017-07-24 05:00:00 21.2 35 Norte 55 Norte 0 1011.7 -1.4 78
2017-07-24 04:00:00 21.4 30 Norte 58 Norte 0 1012 -1.7 75
2017-07-24 03:00:00 21.6 32 Norte 54 Norte 0 1012.6 -1.6 71
2017-07-24 02:00:00 21.8 32 Norte 55 Norte 0 1013.1 -0.9 72
2017-07-24 01:00:00 22.1 34 Norte 55 Norte 0 1013.7 0.1 75
2017-07-24 00:00:00 22.2 32 Norte 55 Norte 0 1014.2 1.2 70
2017-07-23 23:00:00 22.4 35 Norte 55 Norte 0 1014 1.6 70
2017-07-23 22:00:00 22.4 32 Norte 58 Norte 0 1013.6 1.7 72
2017-07-23 21:00:00 22.8 39 Norte 61 Norte 0 1013 1.3 72
2017-07-23 20:00:00 23.5 38 Norte 63 Norte 0 1012.4 -0.3 64
2017-07-23 19:00:00 24.4 38 Norte 67 Norte 0 1011.9 -1.1 60
2017-07-23 18:00:00 24.6 43 Norte 63 Norte 0 1011.7 -1.7 64
2017-07-23 17:00:00 25.4 39 Norte 67 Norte 0 1012.7 -0.9 60
2017-07-23 16:00:00 25.1 39 Norte 67 Norte 0 1013 -0.7 57
2017-07-23 15:00:00 25.9 51 Norte 67 Norte 0 1013.4 -0.4 55
2017-07-23 14:00:00 25.7 48 Norte 67 Norte 0 1013.6 -0.5 57
2017-07-23 13:00:00 24.8 40 Norte 65 Norte 0 1013.7 -0.1 57
2017-07-23 12:00:00 24.6 44 Norte 63 Norte 0 1013.8 0.1 60
2017-07-23 11:00:00 24 42 Norte 61 Norte 0 1014.1 1 58
2017-07-23 10:00:00 23.4 34 Norte 54 Norte 0 1013.8 1.4 61
2017-07-23 09:00:00 22.4 32 Norte 52 Norte 0 1013.7 1.6 65
2017-07-23 08:00:00 21.5 28 Norte 48 Norte 0 1013.1 1.7 74
2017-07-23 07:00:00 21.2 26 Norte 45 Norte 0 1012.4 0.6 73
2017-07-23 06:00:00 21.3 27 Norte 54 Norte 0 1012.1 0.1 72
2017-07-23 05:00:00 21 25 Norte 46 Norte 0 1011.4 -1.1 71
2017-07-23 04:00:00 21.2 28 Norte 52 Norte 0 1011.8 -1.3 72
2017-07-23 03:00:00 21.4 30 Norte 55 Norte 0 1012 -1.2 73
2017-07-23 02:00:00 21.6 33 Norte 54 Norte 0 1012.5 -0.3 72
2017-07-23 01:00:00 21.5 27 Norte 46 Norte 0 1013.1 0.4 72
2017-07-23 00:00:00 21.6 28 Norte 54 Norte 0 1013.2 0.9 72
2017-07-22 23:00:00 22 38 Norte 55 Norte 0 1012.8 0.8 73
2017-07-22 22:00:00 22.2 33 Norte 52 Norte 0 1012.7 1.4 68
2017-07-22 21:00:00 22.4 31 Norte 54 Norte 0 1012.3 0.9 67
2017-07-22 20:00:00 23 35 Norte 54 Norte 0 1012 0.3 66
2017-07-22 19:00:00 24.1 37 Norte 55 Norte 0 1011.3 -0.6 60
2017-07-22 18:00:00 24 33 Norte 59 Norte 0 1011.4 -0.9 60
2017-07-22 17:00:00 24.6 35 Norte 61 Norte 0 1011.7 -1 49
2017-07-22 16:00:00 25 42 Norte 65 Norte 0 1011.9 -0.7 52
2017-07-22 15:00:00 25.2 39 Norte 59 Norte 0 1012.3 -0.4 50
2017-07-22 14:00:00 24.5 36 Norte 61 Norte 0 1012.7 0.3 56
2017-07-22 13:00:00 24.6 35 Norte 65 Norte 0 1012.6 0.1 55
2017-07-22 12:00:00 24.9 32 Norte 61 Norte 0 1012.7 1 53
2017-07-22 11:00:00 23.8 37 Norte 54 Norte 0 1012.4 1.1 56
2017-07-22 10:00:00 22.3 30 Norte 48 Norte 0 1012.5 1.6 69
2017-07-22 09:00:00 21.8 24 Norte 46 Norte 0 1011.7 1 72
2017-07-22 08:00:00 21.5 26 Norte 46 Norte 0 1011.3 0.8 72
2017-07-22 07:00:00 21.4 24 Norte 45 Norte 0 1010.9 0.2 67
2017-07-22 06:00:00 21.5 23 Norte 48 Noroeste 0 1010.7 -0.4 64
2017-07-22 05:00:00 21.1 26 Norte 45 Norte 0 1010.5 -1.1 72
2017-07-22 04:00:00 21.6 24 Norte 45 Norte 0 1010.7 -1.3 69
2017-07-22 03:00:00 21.2 22 Norte 39 Norte 0 1011.1 -1.1 72
2017-07-22 02:00:00 21.5 20 Norte 39 Norte 0 1011.6 -0.5 65
2017-07-22 01:00:00 21.4 24 Norte 42 Norte 0 1012 0.5 68
2017-07-22 00:00:00 21.6 24 Norte 45 Norte 0 1012.2 0.8 69
2017-07-21 23:00:00 22.3 26 Norte 45 Norte 0 1012.1 0.7 62
2017-07-21 22:00:00 21.8 25 Norte 46 Norte 0 1011.5 0.2 68
2017-07-21 21:00:00 22.2 30 Norte 46 Norte 0 1011.4 0.3 65
2017-07-21 20:00:00 23.1 30 Norte 55 Norte 0 1011.4 0.1 58
2017-07-21 19:00:00 23 36 Norte 61 Norte 0 1011.3 -0.3 65
2017-07-21 18:00:00 24 36 Norte 59 Norte 0 1011.1 -0.6 60
2017-07-21 17:00:00 24.8 35 Norte 59 Norte 0 1011.3 -1 50
2017-07-21 16:00:00 24.5 43 Norte 58 Norte 0 1011.6 -1.2 60
2017-07-21 15:00:00 25.2 41 Norte 61 Norte 0 1011.7 -1.5 55
2017-07-21 14:00:00 25.1 40 Norte 68 Norte 0 1012.3 -0.5 50
2017-07-21 13:00:00 24.8 36 Norte 61 Norte 0 1012.8 0.5 49
2017-07-21 12:00:00 22.7 39 Norte 59 Norte 0 1013.2 0.9 68
2017-07-21 11:00:00 24.1 33 Norte 58 Norte 0 1012.8 1.1 57
2017-07-21 10:00:00 22.8 34 Norte 52 Norte 0 1012.3 0.8 62
2017-07-21 09:00:00 21.8 31 Norte 48 Norte 0 1012.3 1.2 69
2017-07-21 08:00:00 21.6 27 Norte 45 Noroeste 0 1011.7 0.5 71
2017-07-21 07:00:00 21 26 Norte 50 Norte 0 1011.5 0.3 69
2017-07-21 06:00:00 21.2 26 Norte 46 Norte 0 1011.1 -0.3 71
2017-07-21 05:00:00 21.1 24 Norte 42 Norte 0 1011.2 -1 72
2017-07-21 04:00:00 21 27 Norte 50 Norte 0 1011.2 -1.8 74
2017-07-21 03:00:00 21.4 28 Norte 52 Norte 0 1011.4 -2 75
2017-07-21 02:00:00 21.7 28 Norte 46 Norte 0 1012.2 -1 77
2017-07-21 01:00:00 22.1 24 Norte 46 Norte 0 1013 0.2 71
2017-07-21 00:00:00 21.9 25 Norte 46 Norte 0 1013.4 0.9 71
2017-07-20 23:00:00 22.1 27 Norte 45 Norte 0 1013.2 0.9 73
2017-07-20 22:00:00 22.5 26 Norte 46 Norte 0 1012.8 0.6 73
2017-07-20 21:00:00 22.9 29 Norte 50 Norte 0 1012.5 0.3 68
2017-07-20 20:00:00 24 31 Norte 52 Norte 0 1012.3 -0.4 64
2017-07-20 19:00:00 24.3 39 Norte 59 Norte 0 1012.2 -0.5 62
2017-07-20 18:00:00 24.8 39 Norte 55 Norte 0 1012.2 -0.7 64
2017-07-20 17:00:00 25.3 40 Norte 58 Norte 0 1012.7 -0.7 58
2017-07-20 16:00:00 26.3 43 Norte 58 Norte 0 1012.7 -1.3 58
2017-07-20 15:00:00 26.2 35 Norte 58 Norte 0 1012.9 -1.4 57
2017-07-20 14:00:00 25.5 33 Norte 54 Norte 0 1013.4 -0.7 60
2017-07-20 13:00:00 24.6 36 Norte 48 Norte 0 1014 0.1 67
2017-07-20 12:00:00 22.5 33 Norte 58 Norte 0 1014.3 0.7 85
2017-07-20 11:00:00 23.9 35 Norte 50 Norte 0 1014.1 0.8 72
2017-07-20 10:00:00 23 28 Norte 42 Norte 0 1013.9 1 76
2017-07-20 09:00:00 22.1 24 Norte 42 Norte 0 1013.6 0.6 76
2017-07-20 08:00:00 21.4 22 Norte 41 Norte 0 1013.3 0.2 81
2017-07-20 07:00:00 21.6 24 Norte 45 Norte 0 1012.9 -0.2 78
2017-07-20 06:00:00 21.9 29 Norte 45 Norte 0 1013 -0.2 76
2017-07-20 05:00:00 21.9 26 Norte 42 Norte 0 1013.1 -0.2 71
2017-07-20 04:00:00 21.5 25 Norte 45 Norte 0 1013.1 -0.3 72
2017-07-20 03:00:00 21.4 30 Norte 48 Norte 0 1013.2 -0.4 74
2017-07-20 02:00:00 21.4 31 Norte 48 Norte 0 1013.3 -0.2 72
2017-07-20 01:00:00 21.5 28 Norte 48 Norte 0 1013.4 0.2 74
2017-07-20 00:00:00 21.6 28 Norte 52 Norte 0 1013.6 1.1 73
2017-07-19 23:00:00 21.7 30 Norte 50 Norte 0 1013.5 1 72
2017-07-19 22:00:00 21.9 28 Norte 50 Norte 0 1013.2 1 71
2017-07-19 21:00:00 22.4 31 Norte 50 Norte 0 1012.5 0.4 70
2017-07-19 20:00:00 23.4 32 Norte 58 Norte 0 1012.5 0.2 67
2017-07-19 19:00:00 24.3 33 Norte 55 Norte 0 1012.2 -0.1 63
2017-07-19 18:00:00 24.7 42 Norte 59 Nordeste 0 1012.1 -0.2 63
2017-07-19 17:00:00 25.5 50 Norte 61 Norte 0 1012.3 0.1 60
2017-07-19 16:00:00 25.6 40 Norte 65 Norte 0 1012.3 -0.1 60
2017-07-19 15:00:00 25.7 42 Norte 67 Norte 0 1012.3 -0.4 59
2017-07-19 14:00:00 25.9 41 Norte 61 Norte 0 1012.2 -0.4 58
2017-07-19 13:00:00 25.4 41 Norte 55 Norte 0 1012.4 0.3 60
2017-07-19 12:00:00 24.7 39 Norte 58 Norte 0 1012.7 0.7 62
2017-07-19 11:00:00 24 34 Norte 52 Norte 0 1012.6 1.1 65
2017-07-19 10:00:00 23.2 34 Norte 52 Norte 0 1012.1 1.3 68
2017-07-19 09:00:00 22.1 28 Norte 46 Norte 0 1012 1.5 71
2017-07-19 08:00:00 21.1 26 Norte 45 Norte 0 1011.5 1.5 77
2017-07-19 07:00:00 21 24 Norte 45 Norte 0 1010.8 0.9 78
2017-07-19 06:00:00 21 26 Norte 46 Norte 0 1010.5 0.2 77
2017-07-19 05:00:00 21.1 32 Norte 50 Norte 0 1010 -1 77
2017-07-19 04:00:00 21.2 33 Norte 54 Norte 0 1009.9 -1.6 76
2017-07-19 03:00:00 21.5 26 Norte 52 Norte 0 1010.3 -1.4 77
2017-07-19 02:00:00 21.6 33 Norte 52 Norte 0 1011 -0.5 76
2017-07-19 01:00:00 21.7 26 Norte 52 Norte 0 1011.5 0.8 76
2017-07-19 00:00:00 21.9 33 Norte 50 Norte 0 1011.7 1.4 76